To NAV CANADA Home Page Login to a new session Search on AWWS site Disclaimer Vers la page française équivalente Tips FAQ What's new on the site To the Forecasts and Observations / NOTAM section To "File a Flight Plan" website Publications and other links Update of the User's profile FIC Telephone Numbers My Weather Data Folder Route Weather Data Regional Weather Data Local Weather Data To the Forecasts and Observations / NOTAM section
Request Generated 06/25/2018 at 05:39:53 UTC . Weather information available at that time is displayed.


Save this request

METAR/TAF

WINNIPEG/JAMES ARMSTRONG RICHARDSON INTL/MB    

METAR CYWG 250500Z 11010G16KT 15SM SKC 20/14 A3005 RMK SLP177 DENSITY
ALT 1400FT=
METAR CYWG 250400Z 14011KT 15SM SKC 21/15 A3005 RMK SLP180 DENSITY
ALT 1500FT=
METAR CYWG 250300Z 11009KT 15SM FEW250 21/16 A3004 RMK CI1 SLP175
DENSITY ALT 1600FT=

TAF CYWG 242341Z 2500/2524 11012KT P6SM FEW030
FM251200 15012KT P6SM SCT020 BKN120
FM251400 15015G25KT P6SM -SHRA OVC025 TEMPO 2514/2518 4SM -SHRA
BR VCTS OVC015CB
FM251800 15015G25KT P6SM OVC020 TEMPO 2518/2524 5SM -DZ BR
RMK NXT FCST BY 250600Z=

PORTAGE LA PRAIRIE/SOUTHPORT/MB    

CYPG - METAR not available

*** REMARK        : Forecast period has ended; this was the last TAF issued
*** REMARQUE : La période de prévision est échue; ceci était le dernier TAF qui a été émis
TAF AMD CYPG 222216Z 2219/2306 FCST CNCLD DUE END OF FLYING PROGRAM
RMK NXT FCST WILL BE ISSUED AT 251215Z=

BRANDON MUNICIPALITY/MB    

METAR CYBR 250500Z 08006KT 15SM FEW040 FEW160 SCT250 17/16 A3003 RMK
SC1AC1CI2 SLP176 DENSITY ALT 1800FT=
METAR CYBR 250400Z 08006KT 15SM SCT041 BKN160 BKN250 18/16 A3005 RMK
SC3AC3CI1 SLP181 DENSITY ALT 1900FT=
METAR CYBR 250300Z 08007KT 15SM FEW030CB SCT120 SCT250 18/17 A3004
RMK CB1AC2CI1 SLP178 DENSITY ALT 2000FT=

TAF CYBR 242341Z 2500/2512 08012G22KT P6SM BKN030
FM250400 09010KT P6SM SCT030
FM251100 09010KT P6SM SCT030 BKN100
RMK NXT FCST BY 250600Z=

KENORA/ON    

METAR CYQK 250500Z 16006KT 15SM SKC 16/13 A3012 RMK SLP205 DENSITY
ALT 1600FT=
METAR CYQK 250400Z 16005KT 15SM SKC 17/13 A3013 RMK SLP208 DENSITY
ALT 1700FT=
METAR CYQK 250300Z 14005KT 15SM FEW160 18/14 A3012 RMK AC1 SLP206
DENSITY ALT 1800FT=

TAF CYQK 250138Z 2502/2514 13008KT P6SM FEW030
RMK NXT FCST BY 250800Z=

DRYDEN REGIONAL/ON    (show WxCam)

METAR CYHD 250500Z AUTO 11007KT 9SM CLR 15/08 A3015 RMK SLP219=
METAR CYHD 250400Z AUTO 11007KT 9SM CLR 16/09 A3015 RMK SLP220
DENSITY ALT 1500FT=
METAR CYHD 250300Z AUTO 11007KT 9SM CLR 17/09 A3015 RMK SLP218
DENSITY ALT 1600FT=

TAF CYHD 250138Z 2502/2514 12008KT P6SM SKC
RMK FCST BASED ON AUTO OBS. NXT FCST BY 250800Z=

THUNDER BAY/ON    (show WxCam)

METAR CYQT 250500Z 28003KT 15SM SKC 06/05 A3022 RMK SLP240=
METAR CYQT 250400Z 27003KT 15SM SKC 08/06 A3021 RMK SLP237=
METAR CYQT 250300Z 29003KT 15SM FEW270 10/06 A3020 RMK CI1 SLP234=

TAF CYQT 250138Z 2502/2514 10006KT P6SM SKC
RMK NXT FCST BY 250800Z=


Your time UTC time
Weather data provided by Environment Canada and NAV CANADA